sensor_id;sensor_type;location;lat;lon;timestamp;P1;durP1;ratioP1;P2;durP2;ratioP2
9918;SDS011;4998;51.024;13.828;2022-12-18T00:01:01;25.73;;;15.70;;
9918;SDS011;4998;51.024;13.828;2022-12-18T00:03:31;23.60;;;14.27;;
9918;SDS011;4998;51.024;13.828;2022-12-18T00:05:58;25.73;;;15.93;;
9918;SDS011;4998;51.024;13.828;2022-12-18T00:08:26;26.00;;;16.00;;
9918;SDS011;4998;51.024;13.828;2022-12-18T00:10:54;22.30;;;14.73;;
9918;SDS011;4998;51.024;13.828;2022-12-18T00:13:21;23.90;;;15.30;;
9918;SDS011;4998;51.024;13.828;2022-12-18T00:15:49;26.00;;;15.00;;
9918;SDS011;4998;51.024;13.828;2022-12-18T00:18:17;27.17;;;14.80;;
9918;SDS011;4998;51.024;13.828;2022-12-18T00:20:44;23.10;;;15.43;;
9918;SDS011;4998;51.024;13.828;2022-12-18T00:23:11;25.87;;;15.33;;
9918;SDS011;4998;51.024;13.828;2022-12-18T00:25:38;23.60;;;14.63;;
9918;SDS011;4998;51.024;13.828;2022-12-18T00:28:05;19.90;;;13.40;;
9918;SDS011;4998;51.024;13.828;2022-12-18T00:30:32;22.07;;;14.07;;
9918;SDS011;4998;51.024;13.828;2022-12-18T00:33:00;19.87;;;12.10;;
9918;SDS011;4998;51.024;13.828;2022-12-18T00:35:27;20.50;;;13.60;;
9918;SDS011;4998;51.024;13.828;2022-12-18T00:37:54;19.60;;;13.43;;
9918;SDS011;4998;51.024;13.828;2022-12-18T00:40:21;20.60;;;13.53;;
9918;SDS011;4998;51.024;13.828;2022-12-18T00:42:48;21.90;;;13.87;;
9918;SDS011;4998;51.024;13.828;2022-12-18T00:45:20;21.70;;;13.97;;
9918;SDS011;4998;51.024;13.828;2022-12-18T00:47:48;19.97;;;13.17;;
9918;SDS011;4998;51.024;13.828;2022-12-18T00:50:16;21.57;;;12.37;;
9918;SDS011;4998;51.024;13.828;2022-12-18T00:52:44;20.43;;;12.83;;
9918;SDS011;4998;51.024;13.828;2022-12-18T00:55:11;21.20;;;12.57;;
9918;SDS011;4998;51.024;13.828;2022-12-18T00:57:38;17.67;;;12.00;;
9918;SDS011;4998;51.024;13.828;2022-12-18T01:00:07;18.87;;;11.87;;
9918;SDS011;4998;51.024;13.828;2022-12-18T01:02:36;18.00;;;11.20;;
9918;SDS011;4998;51.024;13.828;2022-12-18T01:05:04;18.07;;;12.07;;
9918;SDS011;4998;51.024;13.828;2022-12-18T01:07:33;19.60;;;11.97;;
9918;SDS011;4998;51.024;13.828;2022-12-18T01:10:00;16.47;;;11.57;;
9918;SDS011;4998;51.024;13.828;2022-12-18T01:12:27;16.37;;;11.23;;
9918;SDS011;4998;51.024;13.828;2022-12-18T01:14:54;18.17;;;11.37;;
9918;SDS011;4998;51.024;13.828;2022-12-18T01:17:21;20.30;;;13.17;;
9918;SDS011;4998;51.024;13.828;2022-12-18T01:19:48;21.20;;;12.77;;
9918;SDS011;4998;51.024;13.828;2022-12-18T01:22:16;18.97;;;12.47;;
9918;SDS011;4998;51.024;13.828;2022-12-18T01:24:44;15.93;;;11.23;;
9918;SDS011;4998;51.024;13.828;2022-12-18T01:27:11;21.07;;;11.63;;
9918;SDS011;4998;51.024;13.828;2022-12-18T01:29:38;21.63;;;12.33;;
9918;SDS011;4998;51.024;13.828;2022-12-18T01:32:05;21.30;;;11.37;;
9918;SDS011;4998;51.024;13.828;2022-12-18T01:34:32;16.03;;;9.30;;
9918;SDS011;4998;51.024;13.828;2022-12-18T01:37:02;13.73;;;9.40;;
9918;SDS011;4998;51.024;13.828;2022-12-18T01:39:29;11.90;;;9.27;;
9918;SDS011;4998;51.024;13.828;2022-12-18T01:41:59;14.37;;;9.17;;
9918;SDS011;4998;51.024;13.828;2022-12-18T01:44:51;17.80;;;9.00;;
9918;SDS011;4998;51.024;13.828;2022-12-18T01:47:25;11.87;;;8.63;;
9918;SDS011;4998;51.024;13.828;2022-12-18T01:49:55;16.60;;;9.70;;
9918;SDS011;4998;51.024;13.828;2022-12-18T01:52:23;12.20;;;7.83;;
9918;SDS011;4998;51.024;13.828;2022-12-18T01:54:52;11.30;;;7.90;;
9918;SDS011;4998;51.024;13.828;2022-12-18T01:57:22;12.70;;;8.13;;
9918;SDS011;4998;51.024;13.828;2022-12-18T01:59:50;8.87;;;7.10;;
9918;SDS011;4998;51.024;13.828;2022-12-18T02:02:20;10.50;;;7.37;;
9918;SDS011;4998;51.024;13.828;2022-12-18T02:04:48;8.70;;;6.40;;
9918;SDS011;4998;51.024;13.828;2022-12-18T02:07:16;10.03;;;6.77;;
9918;SDS011;4998;51.024;13.828;2022-12-18T02:09:51;11.53;;;7.17;;
9918;SDS011;4998;51.024;13.828;2022-12-18T02:12:26;10.20;;;7.23;;
9918;SDS011;4998;51.024;13.828;2022-12-18T02:15:00;8.40;;;6.30;;
9918;SDS011;4998;51.024;13.828;2022-12-18T02:17:35;13.37;;;8.17;;
9918;SDS011;4998;51.024;13.828;2022-12-18T02:20:09;12.27;;;7.43;;
9918;SDS011;4998;51.024;13.828;2022-12-18T02:22:45;10.63;;;7.07;;
9918;SDS011;4998;51.024;13.828;2022-12-18T02:25:23;11.53;;;7.43;;
9918;SDS011;4998;51.024;13.828;2022-12-18T02:28:02;8.33;;;6.00;;
9918;SDS011;4998;51.024;13.828;2022-12-18T02:30:33;11.17;;;7.23;;
9918;SDS011;4998;51.024;13.828;2022-12-18T02:33:01;8.90;;;6.23;;
9918;SDS011;4998;51.024;13.828;2022-12-18T02:35:30;9.97;;;6.90;;
9918;SDS011;4998;51.024;13.828;2022-12-18T02:37:59;11.47;;;7.43;;
9918;SDS011;4998;51.024;13.828;2022-12-18T02:40:28;12.30;;;6.97;;
9918;SDS011;4998;51.024;13.828;2022-12-18T02:42:55;8.47;;;5.80;;
9918;SDS011;4998;51.024;13.828;2022-12-18T02:45:33;9.37;;;6.27;;
9918;SDS011;4998;51.024;13.828;2022-12-18T02:48:00;10.53;;;6.47;;
9918;SDS011;4998;51.024;13.828;2022-12-18T02:50:29;9.53;;;6.50;;
9918;SDS011;4998;51.024;13.828;2022-12-18T02:53:03;9.77;;;6.23;;
9918;SDS011;4998;51.024;13.828;2022-12-18T02:55:40;7.33;;;5.90;;
9918;SDS011;4998;51.024;13.828;2022-12-18T02:58:18;10.80;;;5.97;;
9918;SDS011;4998;51.024;13.828;2022-12-18T03:00:51;7.27;;;5.60;;
9918;SDS011;4998;51.024;13.828;2022-12-18T03:03:26;8.17;;;5.73;;
9918;SDS011;4998;51.024;13.828;2022-12-18T03:05:58;7.43;;;5.40;;
9918;SDS011;4998;51.024;13.828;2022-12-18T03:08:31;7.57;;;5.63;;
9918;SDS011;4998;51.024;13.828;2022-12-18T03:11:03;7.37;;;5.53;;
9918;SDS011;4998;51.024;13.828;2022-12-18T03:13:34;8.97;;;5.00;;
9918;SDS011;4998;51.024;13.828;2022-12-18T03:16:05;6.67;;;4.97;;
9918;SDS011;4998;51.024;13.828;2022-12-18T03:18:35;6.90;;;5.00;;
9918;SDS011;4998;51.024;13.828;2022-12-18T03:21:06;5.73;;;4.73;;
9918;SDS011;4998;51.024;13.828;2022-12-18T03:23:36;6.03;;;5.20;;
9918;SDS011;4998;51.024;13.828;2022-12-18T03:26:07;5.90;;;4.70;;
9918;SDS011;4998;51.024;13.828;2022-12-18T03:28:40;5.67;;;4.60;;
9918;SDS011;4998;51.024;13.828;2022-12-18T03:31:11;7.50;;;5.20;;
9918;SDS011;4998;51.024;13.828;2022-12-18T03:33:41;6.47;;;4.47;;
9918;SDS011;4998;51.024;13.828;2022-12-18T03:36:12;8.17;;;5.27;;
9918;SDS011;4998;51.024;13.828;2022-12-18T03:38:39;6.37;;;4.60;;
9918;SDS011;4998;51.024;13.828;2022-12-18T03:41:07;8.47;;;5.50;;
9918;SDS011;4998;51.024;13.828;2022-12-18T03:43:45;6.90;;;4.80;;
9918;SDS011;4998;51.024;13.828;2022-12-18T03:46:19;6.37;;;4.63;;
9918;SDS011;4998;51.024;13.828;2022-12-18T03:48:53;6.10;;;4.40;;
9918;SDS011;4998;51.024;13.828;2022-12-18T03:51:26;5.73;;;5.00;;
9918;SDS011;4998;51.024;13.828;2022-12-18T03:54:00;6.70;;;4.47;;
9918;SDS011;4998;51.024;13.828;2022-12-18T03:56:30;6.43;;;5.00;;
9918;SDS011;4998;51.024;13.828;2022-12-18T03:59:01;5.23;;;4.27;;
9918;SDS011;4998;51.024;13.828;2022-12-18T04:01:31;6.20;;;4.67;;
9918;SDS011;4998;51.024;13.828;2022-12-18T04:04:00;8.20;;;6.10;;
9918;SDS011;4998;51.024;13.828;2022-12-18T04:06:28;5.87;;;4.80;;
9918;SDS011;4998;51.024;13.828;2022-12-18T04:08:57;5.70;;;4.83;;
9918;SDS011;4998;51.024;13.828;2022-12-18T04:11:24;5.73;;;4.47;;
9918;SDS011;4998;51.024;13.828;2022-12-18T04:13:54;5.83;;;4.20;;
9918;SDS011;4998;51.024;13.828;2022-12-18T04:16:24;5.90;;;4.90;;
9918;SDS011;4998;51.024;13.828;2022-12-18T04:18:52;6.33;;;4.43;;
9918;SDS011;4998;51.024;13.828;2022-12-18T04:21:19;6.10;;;4.40;;
9918;SDS011;4998;51.024;13.828;2022-12-18T04:23:47;6.07;;;4.80;;
9918;SDS011;4998;51.024;13.828;2022-12-18T04:26:15;5.93;;;4.33;;
9918;SDS011;4998;51.024;13.828;2022-12-18T04:28:42;6.30;;;4.23;;
9918;SDS011;4998;51.024;13.828;2022-12-18T04:31:09;5.53;;;4.63;;
9918;SDS011;4998;51.024;13.828;2022-12-18T04:33:37;5.53;;;4.40;;
9918;SDS011;4998;51.024;13.828;2022-12-18T04:36:05;6.23;;;4.90;;
9918;SDS011;4998;51.024;13.828;2022-12-18T04:38:32;7.27;;;5.40;;
9918;SDS011;4998;51.024;13.828;2022-12-18T04:40:59;6.87;;;4.80;;
9918;SDS011;4998;51.024;13.828;2022-12-18T04:43:26;6.67;;;4.60;;
9918;SDS011;4998;51.024;13.828;2022-12-18T04:45:53;5.90;;;4.40;;
9918;SDS011;4998;51.024;13.828;2022-12-18T04:48:27;5.10;;;4.07;;
9918;SDS011;4998;51.024;13.828;2022-12-18T04:50:55;6.00;;;4.47;;
9918;SDS011;4998;51.024;13.828;2022-12-18T04:53:22;5.03;;;3.67;;
9918;SDS011;4998;51.024;13.828;2022-12-18T04:55:49;4.57;;;3.70;;
9918;SDS011;4998;51.024;13.828;2022-12-18T04:58:16;4.13;;;3.73;;
9918;SDS011;4998;51.024;13.828;2022-12-18T05:00:43;7.13;;;3.87;;
9918;SDS011;4998;51.024;13.828;2022-12-18T05:03:10;5.77;;;3.90;;
9918;SDS011;4998;51.024;13.828;2022-12-18T05:05:37;4.10;;;3.70;;
9918;SDS011;4998;51.024;13.828;2022-12-18T05:08:06;4.47;;;3.67;;
9918;SDS011;4998;51.024;13.828;2022-12-18T05:10:33;5.47;;;3.57;;
9918;SDS011;4998;51.024;13.828;2022-12-18T05:13:00;4.73;;;3.90;;
9918;SDS011;4998;51.024;13.828;2022-12-18T05:15:28;5.37;;;3.67;;
9918;SDS011;4998;51.024;13.828;2022-12-18T05:17:56;3.87;;;3.50;;
9918;SDS011;4998;51.024;13.828;2022-12-18T05:20:23;3.90;;;3.60;;
9918;SDS011;4998;51.024;13.828;2022-12-18T05:22:50;5.50;;;4.13;;
9918;SDS011;4998;51.024;13.828;2022-12-18T05:25:19;5.07;;;4.27;;
9918;SDS011;4998;51.024;13.828;2022-12-18T05:27:47;4.70;;;3.60;;
9918;SDS011;4998;51.024;13.828;2022-12-18T05:30:14;4.87;;;3.93;;
9918;SDS011;4998;51.024;13.828;2022-12-18T05:32:42;4.70;;;3.87;;
9918;SDS011;4998;51.024;13.828;2022-12-18T05:35:09;4.33;;;3.70;;
9918;SDS011;4998;51.024;13.828;2022-12-18T05:37:37;6.10;;;4.30;;
9918;SDS011;4998;51.024;13.828;2022-12-18T05:40:04;5.23;;;4.03;;
9918;SDS011;4998;51.024;13.828;2022-12-18T05:42:34;5.50;;;4.27;;
9918;SDS011;4998;51.024;13.828;2022-12-18T05:45:02;6.87;;;4.40;;
9918;SDS011;4998;51.024;13.828;2022-12-18T05:47:29;3.53;;;3.10;;
9918;SDS011;4998;51.024;13.828;2022-12-18T05:49:56;4.60;;;3.77;;
9918;SDS011;4998;51.024;13.828;2022-12-18T05:52:24;4.80;;;4.00;;
9918;SDS011;4998;51.024;13.828;2022-12-18T05:54:51;6.20;;;4.03;;
9918;SDS011;4998;51.024;13.828;2022-12-18T05:57:18;4.73;;;3.90;;
9918;SDS011;4998;51.024;13.828;2022-12-18T05:59:46;5.27;;;3.30;;
9918;SDS011;4998;51.024;13.828;2022-12-18T06:02:13;5.60;;;4.03;;
9918;SDS011;4998;51.024;13.828;2022-12-18T06:04:40;4.57;;;3.80;;
9918;SDS011;4998;51.024;13.828;2022-12-18T06:07:07;5.27;;;3.97;;
9918;SDS011;4998;51.024;13.828;2022-12-18T06:09:34;3.93;;;3.40;;
9918;SDS011;4998;51.024;13.828;2022-12-18T06:12:01;4.57;;;3.93;;
9918;SDS011;4998;51.024;13.828;2022-12-18T06:14:28;4.00;;;3.63;;
9918;SDS011;4998;51.024;13.828;2022-12-18T06:16:57;5.67;;;3.80;;
9918;SDS011;4998;51.024;13.828;2022-12-18T06:19:24;4.70;;;3.67;;
9918;SDS011;4998;51.024;13.828;2022-12-18T06:21:51;4.60;;;3.47;;
9918;SDS011;4998;51.024;13.828;2022-12-18T06:24:18;5.63;;;3.93;;
9918;SDS011;4998;51.024;13.828;2022-12-18T06:26:45;4.83;;;3.80;;
9918;SDS011;4998;51.024;13.828;2022-12-18T06:29:12;4.60;;;3.67;;
9918;SDS011;4998;51.024;13.828;2022-12-18T06:31:39;6.23;;;4.03;;
9918;SDS011;4998;51.024;13.828;2022-12-18T06:34:07;6.77;;;4.43;;
9918;SDS011;4998;51.024;13.828;2022-12-18T06:36:34;5.83;;;4.37;;
9918;SDS011;4998;51.024;13.828;2022-12-18T06:39:01;5.87;;;4.00;;
9918;SDS011;4998;51.024;13.828;2022-12-18T06:41:29;5.77;;;3.90;;
9918;SDS011;4998;51.024;13.828;2022-12-18T06:43:57;6.10;;;4.30;;
9918;SDS011;4998;51.024;13.828;2022-12-18T06:46:24;7.27;;;4.50;;
9918;SDS011;4998;51.024;13.828;2022-12-18T06:48:51;6.40;;;4.50;;
9918;SDS011;4998;51.024;13.828;2022-12-18T06:51:20;6.00;;;4.10;;
9918;SDS011;4998;51.024;13.828;2022-12-18T06:53:48;5.80;;;4.07;;
9918;SDS011;4998;51.024;13.828;2022-12-18T06:56:16;6.90;;;4.33;;
9918;SDS011;4998;51.024;13.828;2022-12-18T06:58:43;6.20;;;4.70;;
9918;SDS011;4998;51.024;13.828;2022-12-18T07:01:10;13.80;;;4.40;;
9918;SDS011;4998;51.024;13.828;2022-12-18T07:03:38;6.27;;;4.77;;
9918;SDS011;4998;51.024;13.828;2022-12-18T07:06:11;5.60;;;4.20;;
9918;SDS011;4998;51.024;13.828;2022-12-18T07:08:42;5.77;;;4.40;;
9918;SDS011;4998;51.024;13.828;2022-12-18T07:11:09;10.07;;;5.20;;
9918;SDS011;4998;51.024;13.828;2022-12-18T07:13:36;6.00;;;4.47;;
9918;SDS011;4998;51.024;13.828;2022-12-18T07:16:04;6.90;;;4.73;;
9918;SDS011;4998;51.024;13.828;2022-12-18T07:18:32;7.77;;;5.20;;
9918;SDS011;4998;51.024;13.828;2022-12-18T07:21:02;6.67;;;5.13;;
9918;SDS011;4998;51.024;13.828;2022-12-18T07:23:31;5.50;;;4.50;;
9918;SDS011;4998;51.024;13.828;2022-12-18T07:26:01;7.50;;;4.40;;
9918;SDS011;4998;51.024;13.828;2022-12-18T07:28:29;7.70;;;5.57;;
9918;SDS011;4998;51.024;13.828;2022-12-18T07:30:57;7.10;;;5.10;;
9918;SDS011;4998;51.024;13.828;2022-12-18T07:33:25;9.37;;;5.67;;
9918;SDS011;4998;51.024;13.828;2022-12-18T07:35:52;8.50;;;5.63;;
9918;SDS011;4998;51.024;13.828;2022-12-18T07:38:19;7.13;;;5.10;;
9918;SDS011;4998;51.024;13.828;2022-12-18T07:40:46;7.17;;;5.70;;
9918;SDS011;4998;51.024;13.828;2022-12-18T07:43:14;6.10;;;4.93;;
9918;SDS011;4998;51.024;13.828;2022-12-18T07:45:42;6.10;;;4.70;;
9918;SDS011;4998;51.024;13.828;2022-12-18T07:48:09;9.60;;;6.00;;
9918;SDS011;4998;51.024;13.828;2022-12-18T07:50:36;8.10;;;5.77;;
9918;SDS011;4998;51.024;13.828;2022-12-18T07:53:03;14.17;;;7.60;;
9918;SDS011;4998;51.024;13.828;2022-12-18T07:55:30;10.77;;;6.67;;
9918;SDS011;4998;51.024;13.828;2022-12-18T07:58:00;11.97;;;7.60;;
9918;SDS011;4998;51.024;13.828;2022-12-18T08:00:28;11.33;;;6.47;;
9918;SDS011;4998;51.024;13.828;2022-12-18T08:02:56;8.73;;;6.37;;
9918;SDS011;4998;51.024;13.828;2022-12-18T08:05:23;11.10;;;6.83;;
9918;SDS011;4998;51.024;13.828;2022-12-18T08:07:50;10.03;;;6.60;;
9918;SDS011;4998;51.024;13.828;2022-12-18T08:10:17;8.67;;;6.13;;
9918;SDS011;4998;51.024;13.828;2022-12-18T08:12:45;8.17;;;6.00;;
9918;SDS011;4998;51.024;13.828;2022-12-18T08:15:12;10.07;;;6.53;;
9918;SDS011;4998;51.024;13.828;2022-12-18T08:17:40;10.33;;;6.90;;
9918;SDS011;4998;51.024;13.828;2022-12-18T08:20:07;8.47;;;5.57;;
9918;SDS011;4998;51.024;13.828;2022-12-18T08:22:35;9.87;;;6.70;;
9918;SDS011;4998;51.024;13.828;2022-12-18T08:25:03;9.53;;;6.47;;
9918;SDS011;4998;51.024;13.828;2022-12-18T08:27:31;9.17;;;6.63;;
9918;SDS011;4998;51.024;13.828;2022-12-18T08:29:58;12.03;;;7.00;;
9918;SDS011;4998;51.024;13.828;2022-12-18T08:32:26;9.30;;;6.40;;
9918;SDS011;4998;51.024;13.828;2022-12-18T08:34:55;11.57;;;6.70;;
9918;SDS011;4998;51.024;13.828;2022-12-18T08:37:22;10.67;;;6.90;;
9918;SDS011;4998;51.024;13.828;2022-12-18T08:39:49;9.97;;;6.80;;
9918;SDS011;4998;51.024;13.828;2022-12-18T08:42:16;10.87;;;7.77;;
9918;SDS011;4998;51.024;13.828;2022-12-18T08:45:01;9.10;;;7.27;;
9918;SDS011;4998;51.024;13.828;2022-12-18T08:47:29;12.87;;;7.47;;
9918;SDS011;4998;51.024;13.828;2022-12-18T08:49:57;10.57;;;7.30;;
9918;SDS011;4998;51.024;13.828;2022-12-18T08:52:24;10.70;;;7.10;;
9918;SDS011;4998;51.024;13.828;2022-12-18T08:54:53;11.73;;;7.27;;
9918;SDS011;4998;51.024;13.828;2022-12-18T08:57:20;12.77;;;7.67;;
9918;SDS011;4998;51.024;13.828;2022-12-18T08:59:47;14.30;;;8.27;;
9918;SDS011;4998;51.024;13.828;2022-12-18T09:02:14;13.57;;;8.57;;
9918;SDS011;4998;51.024;13.828;2022-12-18T09:04:41;16.73;;;9.57;;
9918;SDS011;4998;51.024;13.828;2022-12-18T09:07:10;19.90;;;9.47;;
9918;SDS011;4998;51.024;13.828;2022-12-18T09:09:37;15.20;;;9.07;;
9918;SDS011;4998;51.024;13.828;2022-12-18T09:12:04;19.10;;;10.67;;
9918;SDS011;4998;51.024;13.828;2022-12-18T09:14:31;16.13;;;9.83;;
9918;SDS011;4998;51.024;13.828;2022-12-18T09:16:58;17.60;;;10.47;;
9918;SDS011;4998;51.024;13.828;2022-12-18T09:19:25;20.00;;;10.10;;
9918;SDS011;4998;51.024;13.828;2022-12-18T09:21:52;17.33;;;10.73;;
9918;SDS011;4998;51.024;13.828;2022-12-18T09:24:21;23.03;;;11.23;;
9918;SDS011;4998;51.024;13.828;2022-12-18T09:26:48;21.17;;;11.60;;
9918;SDS011;4998;51.024;13.828;2022-12-18T09:29:15;18.03;;;10.70;;
9918;SDS011;4998;51.024;13.828;2022-12-18T09:31:42;19.07;;;10.77;;
9918;SDS011;4998;51.024;13.828;2022-12-18T09:34:09;17.37;;;10.60;;
9918;SDS011;4998;51.024;13.828;2022-12-18T09:36:36;18.67;;;10.53;;
9918;SDS011;4998;51.024;13.828;2022-12-18T09:39:04;20.60;;;11.70;;
9918;SDS011;4998;51.024;13.828;2022-12-18T09:41:43;20.23;;;11.03;;
9918;SDS011;4998;51.024;13.828;2022-12-18T09:44:20;22.60;;;11.40;;
9918;SDS011;4998;51.024;13.828;2022-12-18T09:46:51;18.13;;;11.10;;
9918;SDS011;4998;51.024;13.828;2022-12-18T09:49:25;19.97;;;11.37;;
9918;SDS011;4998;51.024;13.828;2022-12-18T09:51:59;18.03;;;11.43;;
9918;SDS011;4998;51.024;13.828;2022-12-18T09:54:32;19.80;;;11.37;;
9918;SDS011;4998;51.024;13.828;2022-12-18T09:57:03;19.60;;;11.10;;
9918;SDS011;4998;51.024;13.828;2022-12-18T09:59:32;19.90;;;11.83;;
9918;SDS011;4998;51.024;13.828;2022-12-18T10:02:11;20.63;;;11.47;;
9918;SDS011;4998;51.024;13.828;2022-12-18T10:04:40;24.53;;;13.03;;
9918;SDS011;4998;51.024;13.828;2022-12-18T10:07:08;19.70;;;11.73;;
9918;SDS011;4998;51.024;13.828;2022-12-18T10:09:43;21.80;;;11.93;;
9918;SDS011;4998;51.024;13.828;2022-12-18T10:12:21;19.63;;;11.70;;
9918;SDS011;4998;51.024;13.828;2022-12-18T10:14:56;18.53;;;11.43;;
9918;SDS011;4998;51.024;13.828;2022-12-18T10:17:26;20.90;;;11.77;;
9918;SDS011;4998;51.024;13.828;2022-12-18T10:20:02;21.73;;;12.50;;
9918;SDS011;4998;51.024;13.828;2022-12-18T10:22:40;19.00;;;11.33;;
9918;SDS011;4998;51.024;13.828;2022-12-18T10:25:19;18.50;;;11.27;;
9918;SDS011;4998;51.024;13.828;2022-12-18T10:27:52;21.23;;;12.37;;
9918;SDS011;4998;51.024;13.828;2022-12-18T10:30:22;17.97;;;11.03;;
9918;SDS011;4998;51.024;13.828;2022-12-18T10:32:51;20.40;;;11.13;;
9918;SDS011;4998;51.024;13.828;2022-12-18T10:35:20;20.30;;;11.20;;
9918;SDS011;4998;51.024;13.828;2022-12-18T10:40:51;19.43;;;11.90;;
9918;SDS011;4998;51.024;13.828;2022-12-18T10:43:22;19.60;;;11.90;;
9918;SDS011;4998;51.024;13.828;2022-12-18T10:45:58;19.67;;;11.47;;
9918;SDS011;4998;51.024;13.828;2022-12-18T10:48:32;18.20;;;11.90;;
9918;SDS011;4998;51.024;13.828;2022-12-18T10:51:00;20.50;;;11.87;;
9918;SDS011;4998;51.024;13.828;2022-12-18T10:53:29;20.83;;;11.60;;
9918;SDS011;4998;51.024;13.828;2022-12-18T10:55:58;26.30;;;12.87;;
9918;SDS011;4998;51.024;13.828;2022-12-18T10:58:28;20.77;;;11.40;;
9918;SDS011;4998;51.024;13.828;2022-12-18T11:01:05;15.63;;;11.10;;
9918;SDS011;4998;51.024;13.828;2022-12-18T11:03:35;21.57;;;11.10;;
9918;SDS011;4998;51.024;13.828;2022-12-18T11:06:07;20.30;;;11.60;;
9918;SDS011;4998;51.024;13.828;2022-12-18T11:08:36;19.60;;;10.73;;
9918;SDS011;4998;51.024;13.828;2022-12-18T11:11:04;18.60;;;11.10;;
9918;SDS011;4998;51.024;13.828;2022-12-18T11:13:43;17.17;;;10.73;;
9918;SDS011;4998;51.024;13.828;2022-12-18T11:16:23;17.43;;;10.20;;
9918;SDS011;4998;51.024;13.828;2022-12-18T11:18:51;17.50;;;10.27;;
9918;SDS011;4998;51.024;13.828;2022-12-18T11:21:18;21.83;;;11.63;;
9918;SDS011;4998;51.024;13.828;2022-12-18T11:23:46;19.63;;;11.13;;
9918;SDS011;4998;51.024;13.828;2022-12-18T11:26:16;20.63;;;12.87;;
9918;SDS011;4998;51.024;13.828;2022-12-18T11:28:45;23.43;;;11.97;;
9918;SDS011;4998;51.024;13.828;2022-12-18T11:31:21;18.90;;;10.83;;
9918;SDS011;4998;51.024;13.828;2022-12-18T11:33:52;19.73;;;11.50;;
9918;SDS011;4998;51.024;13.828;2022-12-18T11:36:28;19.47;;;11.10;;
9918;SDS011;4998;51.024;13.828;2022-12-18T11:38:59;21.47;;;10.93;;
9918;SDS011;4998;51.024;13.828;2022-12-18T11:41:32;20.23;;;11.27;;
9918;SDS011;4998;51.024;13.828;2022-12-18T11:44:24;20.00;;;11.23;;
9918;SDS011;4998;51.024;13.828;2022-12-18T11:46:56;18.80;;;11.43;;
9918;SDS011;4998;51.024;13.828;2022-12-18T11:49:28;20.53;;;11.60;;
9918;SDS011;4998;51.024;13.828;2022-12-18T11:52:01;18.10;;;11.60;;
9918;SDS011;4998;51.024;13.828;2022-12-18T11:54:31;20.50;;;10.90;;
9918;SDS011;4998;51.024;13.828;2022-12-18T11:56:58;18.47;;;10.93;;
9918;SDS011;4998;51.024;13.828;2022-12-18T11:59:34;18.17;;;11.47;;
9918;SDS011;4998;51.024;13.828;2022-12-18T12:02:14;19.20;;;11.60;;
9918;SDS011;4998;51.024;13.828;2022-12-18T12:04:56;19.93;;;11.37;;
9918;SDS011;4998;51.024;13.828;2022-12-18T12:07:34;18.80;;;10.63;;
9918;SDS011;4998;51.024;13.828;2022-12-18T12:10:10;16.50;;;10.13;;
9918;SDS011;4998;51.024;13.828;2022-12-18T12:12:51;19.33;;;11.67;;
9918;SDS011;4998;51.024;13.828;2022-12-18T12:15:29;19.90;;;10.97;;
9918;SDS011;4998;51.024;13.828;2022-12-18T12:18:07;18.50;;;10.60;;
9918;SDS011;4998;51.024;13.828;2022-12-18T12:20:45;17.63;;;10.27;;
9918;SDS011;4998;51.024;13.828;2022-12-18T12:23:20;17.43;;;10.67;;
9918;SDS011;4998;51.024;13.828;2022-12-18T12:25:59;16.80;;;10.13;;
9918;SDS011;4998;51.024;13.828;2022-12-18T12:28:42;18.40;;;11.47;;
9918;SDS011;4998;51.024;13.828;2022-12-18T12:31:25;29.63;;;15.07;;
9918;SDS011;4998;51.024;13.828;2022-12-18T12:34:05;20.73;;;12.30;;
9918;SDS011;4998;51.024;13.828;2022-12-18T12:36:45;17.30;;;10.60;;
9918;SDS011;4998;51.024;13.828;2022-12-18T12:39:20;16.57;;;10.33;;
9918;SDS011;4998;51.024;13.828;2022-12-18T12:41:51;17.23;;;10.60;;
9918;SDS011;4998;51.024;13.828;2022-12-18T12:44:38;17.53;;;10.03;;
9918;SDS011;4998;51.024;13.828;2022-12-18T12:47:11;14.20;;;9.47;;
9918;SDS011;4998;51.024;13.828;2022-12-18T12:49:44;18.03;;;10.90;;
9918;SDS011;4998;51.024;13.828;2022-12-18T12:52:14;18.20;;;9.93;;
9918;SDS011;4998;51.024;13.828;2022-12-18T12:54:44;17.30;;;10.17;;
9918;SDS011;4998;51.024;13.828;2022-12-18T12:57:12;20.60;;;10.87;;
9918;SDS011;4998;51.024;13.828;2022-12-18T12:59:47;24.47;;;14.83;;
9918;SDS011;4998;51.024;13.828;2022-12-18T13:02:27;25.80;;;14.73;;
9918;SDS011;4998;51.024;13.828;2022-12-18T13:05:01;23.23;;;13.00;;
9918;SDS011;4998;51.024;13.828;2022-12-18T13:07:34;20.93;;;12.40;;
9918;SDS011;4998;51.024;13.828;2022-12-18T13:10:12;19.30;;;11.27;;
9918;SDS011;4998;51.024;13.828;2022-12-18T13:12:52;19.93;;;10.90;;
9918;SDS011;4998;51.024;13.828;2022-12-18T13:15:23;20.67;;;11.17;;
9918;SDS011;4998;51.024;13.828;2022-12-18T13:18:04;17.37;;;10.53;;
9918;SDS011;4998;51.024;13.828;2022-12-18T13:20:38;25.20;;;11.97;;
9918;SDS011;4998;51.024;13.828;2022-12-18T13:23:26;20.30;;;12.30;;
9918;SDS011;4998;51.024;13.828;2022-12-18T13:25:56;18.83;;;11.13;;
9918;SDS011;4998;51.024;13.828;2022-12-18T13:28:23;19.57;;;11.07;;
9918;SDS011;4998;51.024;13.828;2022-12-18T13:34:19;22.23;;;11.03;;
9918;SDS011;4998;51.024;13.828;2022-12-18T13:36:47;15.97;;;10.50;;
9918;SDS011;4998;51.024;13.828;2022-12-18T13:39:22;17.20;;;9.90;;
9918;SDS011;4998;51.024;13.828;2022-12-18T13:41:52;37.30;;;21.23;;
9918;SDS011;4998;51.024;13.828;2022-12-18T13:45:00;19.23;;;11.70;;
9918;SDS011;4998;51.024;13.828;2022-12-18T13:47:31;18.93;;;10.50;;
9918;SDS011;4998;51.024;13.828;2022-12-18T13:50:02;18.47;;;10.30;;
9918;SDS011;4998;51.024;13.828;2022-12-18T13:52:37;14.20;;;8.67;;
9918;SDS011;4998;51.024;13.828;2022-12-18T13:55:06;14.63;;;9.30;;
9918;SDS011;4998;51.024;13.828;2022-12-18T13:57:42;15.23;;;9.43;;
9918;SDS011;4998;51.024;13.828;2022-12-18T14:00:19;13.10;;;8.40;;
9918;SDS011;4998;51.024;13.828;2022-12-18T14:02:52;13.50;;;8.63;;
9918;SDS011;4998;51.024;13.828;2022-12-18T14:05:22;15.60;;;8.23;;
9918;SDS011;4998;51.024;13.828;2022-12-18T14:07:50;11.30;;;7.57;;
9918;SDS011;4998;51.024;13.828;2022-12-18T14:10:18;12.40;;;8.53;;
9918;SDS011;4998;51.024;13.828;2022-12-18T14:12:47;15.00;;;8.60;;
9918;SDS011;4998;51.024;13.828;2022-12-18T14:15:25;13.60;;;8.83;;
9918;SDS011;4998;51.024;13.828;2022-12-18T14:17:59;13.50;;;9.27;;
9918;SDS011;4998;51.024;13.828;2022-12-18T14:20:30;12.90;;;8.67;;
9918;SDS011;4998;51.024;13.828;2022-12-18T14:22:58;13.13;;;8.07;;
9918;SDS011;4998;51.024;13.828;2022-12-18T14:25:26;15.63;;;8.60;;
9918;SDS011;4998;51.024;13.828;2022-12-18T14:28:01;12.00;;;7.93;;
9918;SDS011;4998;51.024;13.828;2022-12-18T14:30:35;13.13;;;8.30;;
9918;SDS011;4998;51.024;13.828;2022-12-18T14:33:05;15.77;;;9.13;;
9918;SDS011;4998;51.024;13.828;2022-12-18T14:35:38;14.30;;;8.80;;
9918;SDS011;4998;51.024;13.828;2022-12-18T14:38:10;12.20;;;7.80;;
9918;SDS011;4998;51.024;13.828;2022-12-18T14:40:45;12.50;;;8.30;;
9918;SDS011;4998;51.024;13.828;2022-12-18T14:43:12;17.20;;;8.33;;
9918;SDS011;4998;51.024;13.828;2022-12-18T14:45:39;13.73;;;8.57;;
9918;SDS011;4998;51.024;13.828;2022-12-18T14:48:09;14.33;;;8.40;;
9918;SDS011;4998;51.024;13.828;2022-12-18T14:50:42;12.20;;;8.20;;
9918;SDS011;4998;51.024;13.828;2022-12-18T14:53:20;13.63;;;8.23;;
9918;SDS011;4998;51.024;13.828;2022-12-18T14:55:50;13.40;;;8.70;;
9918;SDS011;4998;51.024;13.828;2022-12-18T14:58:17;14.17;;;8.50;;
9918;SDS011;4998;51.024;13.828;2022-12-18T15:00:44;15.10;;;8.90;;
9918;SDS011;4998;51.024;13.828;2022-12-18T15:03:12;14.30;;;8.30;;
9918;SDS011;4998;51.024;13.828;2022-12-18T15:05:45;12.47;;;8.33;;
9918;SDS011;4998;51.024;13.828;2022-12-18T15:08:30;12.80;;;7.97;;
9918;SDS011;4998;51.024;13.828;2022-12-18T15:11:00;15.67;;;8.53;;
9918;SDS011;4998;51.024;13.828;2022-12-18T15:13:27;13.97;;;8.40;;